Time;durP1;ratioP1;P1;durP2;ratioP2;P2;SDS_P1;SDS_P2;PMS_P1;PMS_P2;Temp;Humidity;BMP_temperature;BMP_pressure;BME280_temperature;BME280_humidity;BME280_pressure;Samples;Min_cycle;Max_cycle;Signal;HPM_P1;HPM_P2
2023/04/08 00:02:17;;;;;;;16.40;14.90;;;4.40;99.90;;;;;;5082702;28;20040;-76
2023/04/08 00:04:46;;;;;;;16.55;15.00;;;4.40;99.90;;;;;;5075852;28;20081;-77
2023/04/08 00:07:13;;;;;;;16.77;15.10;;;4.40;99.90;;;;;;5072179;28;20043;-77
2023/04/08 00:09:42;;;;;;;15.60;14.20;;;4.30;99.90;;;;;;5073585;28;20043;-77
2023/04/08 00:12:08;;;;;;;17.17;15.60;;;4.30;99.90;;;;;;5077051;28;21124;-77
2023/04/08 00:14:34;;;;;;;16.27;14.68;;;4.30;99.90;;;;;;5074513;28;20040;-77
2023/04/08 00:17:00;;;;;;;16.33;14.75;;;4.30;99.90;;;;;;5074876;28;20042;-77
2023/04/08 00:19:28;;;;;;;14.93;13.38;;;4.30;99.90;;;;;;5072426;28;20035;-76
2023/04/08 00:21:53;;;;;;;16.33;14.73;;;4.40;99.90;;;;;;5067196;28;20309;-77
2023/04/08 00:24:19;;;;;;;16.27;14.75;;;4.30;99.90;;;;;;5076238;28;20518;-77
2023/04/08 00:26:45;;;;;;;14.77;13.32;;;4.30;99.90;;;;;;5094784;28;20031;-76
2023/04/08 00:29:12;;;;;;;17.92;16.17;;;4.20;99.90;;;;;;5061504;28;20040;-77
2023/04/08 00:31:39;;;;;;;16.17;14.70;;;4.20;99.90;;;;;;5083803;28;20039;-76
2023/04/08 00:34:06;;;;;;;16.25;14.65;;;4.10;99.90;;;;;;5079244;28;20040;-76
2023/04/08 00:36:33;;;;;;;17.65;16.05;;;4.10;99.90;;;;;;5094581;28;20473;-77
2023/04/08 00:38:59;;;;;;;16.02;14.30;;;4.00;99.90;;;;;;5072188;28;20071;-77
2023/04/08 00:41:26;;;;;;;16.95;15.40;;;4.00;99.90;;;;;;5081918;28;20040;-77
2023/04/08 00:43:54;;;;;;;16.50;14.95;;;3.90;99.90;;;;;;5077740;28;20067;-77
2023/04/08 00:46:23;;;;;;;15.27;13.88;;;4.00;99.90;;;;;;5093076;28;20460;-77
2023/04/08 00:48:49;;;;;;;16.00;14.43;;;4.00;99.90;;;;;;5074029;28;20486;-76
2023/04/08 00:51:16;;;;;;;15.98;14.40;;;3.90;99.90;;;;;;5081013;28;20127;-76
2023/04/08 00:53:43;;;;;;;17.55;15.88;;;3.80;99.90;;;;;;5072317;28;20522;-76
2023/04/08 00:56:10;;;;;;;16.80;15.10;;;3.70;99.90;;;;;;5073336;28;20400;-77
2023/04/08 00:58:36;;;;;;;17.05;15.45;;;3.70;99.90;;;;;;5074029;28;20486;-77
2023/04/08 01:01:07;;;;;;;17.10;15.43;;;3.60;99.90;;;;;;5079982;28;20036;-77
2023/04/08 01:03:49;;;;;;;16.75;15.05;;;3.60;99.90;;;;;;5076381;28;20036;-76
2023/04/08 01:06:31;;;;;;;17.27;15.57;;;3.60;99.90;;;;;;5073082;28;20496;-76
2023/04/08 01:08:59;;;;;;;17.23;15.43;;;3.50;99.90;;;;;;5074023;28;20036;-76
2023/04/08 01:11:28;;;;;;;16.92;15.30;;;3.50;99.90;;;;;;5083318;28;20044;-77
2023/04/08 01:13:57;;;;;;;18.30;16.60;;;3.50;99.90;;;;;;5080968;28;20040;-76
2023/04/08 01:16:25;;;;;;;17.48;15.77;;;3.60;99.90;;;;;;5092833;28;20031;-76
2023/04/08 01:18:53;;;;;;;15.93;14.32;;;3.60;99.90;;;;;;5078581;28;20481;-76
2023/04/08 01:21:20;;;;;;;16.98;15.27;;;3.60;99.90;;;;;;5066187;28;20055;-76
2023/04/08 01:24:02;;;;;;;16.80;15.10;;;3.60;99.90;;;;;;5082822;28;20036;-76
2023/04/08 01:26:29;;;;;;;16.90;15.23;;;3.60;99.90;;;;;;5093601;28;20092;-76
2023/04/08 01:28:58;;;;;;;17.40;15.48;;;3.60;99.90;;;;;;5087188;28;20035;-76
2023/04/08 01:31:25;;;;;;;17.58;15.88;;;3.60;99.90;;;;;;5071907;28;20043;-76
2023/04/08 01:33:52;;;;;;;17.38;15.70;;;3.50;99.90;;;;;;5062613;28;20101;-77
2023/04/08 01:36:19;;;;;;;17.60;15.77;;;3.50;99.90;;;;;;5070212;28;20043;-77
2023/04/08 01:38:47;;;;;;;18.15;16.35;;;3.50;99.90;;;;;;5073154;28;20119;-76
2023/04/08 01:41:16;;;;;;;17.55;15.85;;;3.40;99.90;;;;;;5064884;28;20114;-76
2023/04/08 01:43:46;;;;;;;17.88;16.13;;;3.30;99.90;;;;;;5077448;28;20048;-77
2023/04/08 01:46:13;;;;;;;17.92;16.23;;;3.30;99.90;;;;;;5076196;28;20452;-77
2023/04/08 01:48:40;;;;;;;17.70;16.10;;;3.20;99.90;;;;;;5075789;28;20032;-77
2023/04/08 01:51:08;;;;;;;17.55;15.73;;;3.20;99.90;;;;;;5071939;28;20042;-77
2023/04/08 01:53:34;;;;;;;18.42;16.52;;;3.10;99.90;;;;;;5083814;28;20036;-76
2023/04/08 01:56:05;;;;;;;18.25;16.55;;;3.10;99.90;;;;;;5072287;28;20044;-76
2023/04/08 01:58:38;;;;;;;17.75;15.98;;;3.10;99.90;;;;;;5070250;28;20032;-76
2023/04/08 02:01:12;;;;;;;19.55;17.73;;;3.10;99.90;;;;;;5069041;28;20072;-76
2023/04/08 02:03:42;;;;;;;17.60;15.95;;;3.10;99.90;;;;;;5080396;28;20036;-76
2023/04/08 02:06:08;;;;;;;18.33;16.42;;;3.10;99.90;;;;;;5069841;28;20032;-76
2023/04/08 02:08:37;;;;;;;19.77;17.85;;;3.20;99.90;;;;;;5058088;28;20035;-76
2023/04/08 02:11:04;;;;;;;19.50;17.60;;;3.20;99.90;;;;;;5064070;28;20510;-75
2023/04/08 02:13:31;;;;;;;19.30;17.40;;;3.10;99.90;;;;;;5072582;28;20494;-76
2023/04/08 02:16:09;;;;;;;20.67;18.58;;;3.10;99.90;;;;;;5088958;28;20043;-77
2023/04/08 02:18:38;;;;;;;21.25;19.23;;;3.10;99.90;;;;;;5087750;28;20032;-76
2023/04/08 02:21:09;;;;;;;20.95;18.75;;;3.10;99.90;;;;;;5086057;28;20074;-76
2023/04/08 02:23:39;;;;;;;20.02;17.88;;;3.20;99.90;;;;;;5072490;28;20040;-76
2023/04/08 02:26:12;;;;;;;20.90;18.90;;;3.10;99.90;;;;;;5073181;28;20077;-77
2023/04/08 02:28:40;;;;;;;21.10;19.08;;;3.20;99.90;;;;;;5076769;28;20031;-76
2023/04/08 02:31:12;;;;;;;21.58;19.38;;;3.10;99.90;;;;;;5076214;28;20050;-76
2023/04/08 02:33:39;;;;;;;8.20;5.18;;;3.10;99.90;;;;;;5069079;28;20097;-76
2023/04/08 02:36:06;;;;;;;23.33;20.88;;;3.10;99.90;;;;;;5077874;28;20134;-76
2023/04/08 02:38:33;;;;;;;21.77;19.73;;;3.10;99.90;;;;;;5064229;28;20454;-76
2023/04/08 02:40:59;;;;;;;23.45;21.25;;;3.00;99.90;;;;;;5080534;28;20032;-76
2023/04/08 02:43:30;;;;;;;24.30;22.00;;;3.00;99.90;;;;;;5068720;28;20044;-76
2023/04/08 02:45:58;;;;;;;23.55;21.13;;;2.90;99.90;;;;;;5086007;28;20035;-76
2023/04/08 02:48:27;;;;;;;23.55;21.25;;;2.90;99.90;;;;;;5075186;28;20040;-76
2023/04/08 02:50:54;;;;;;;23.98;21.70;;;2.80;99.90;;;;;;5084177;28;20088;-76
2023/04/08 02:53:22;;;;;;;23.70;21.40;;;2.80;99.90;;;;;;5070210;28;20036;-76
2023/04/08 02:55:48;;;;;;;15.85;9.43;;;2.70;99.90;;;;;;5087908;28;20132;-76
2023/04/08 02:58:17;;;;;;;22.23;19.98;;;2.60;99.90;;;;;;5087017;28;20486;-76
2023/04/08 03:00:44;;;;;;;23.80;21.50;;;2.50;99.90;;;;;;5080946;28;20107;-76
2023/04/08 03:03:10;;;;;;;12.35;8.10;;;2.40;99.90;;;;;;5068234;28;20044;-76
2023/04/08 03:05:37;;;;;;;21.13;19.02;;;2.30;99.90;;;;;;5088190;28;20032;-76
2023/04/08 03:08:03;;;;;;;23.88;21.58;;;2.20;99.90;;;;;;5088186;28;20093;-76
2023/04/08 03:10:29;;;;;;;14.07;9.10;;;2.10;99.90;;;;;;5087615;28;20038;-76
2023/04/08 03:12:58;;;;;;;26.50;23.80;;;2.00;99.90;;;;;;5079431;28;20073;-76
2023/04/08 03:15:24;;;;;;;27.20;24.60;;;1.90;99.90;;;;;;5074569;28;20079;-76
2023/04/08 03:17:50;;;;;;;29.85;26.73;;;1.90;99.90;;;;;;5070358;28;20043;-76
2023/04/08 03:20:16;;;;;;;28.83;26.13;;;1.90;99.90;;;;;;5083297;28;20549;-76
2023/04/08 03:22:43;;;;;;;17.88;9.90;;;1.90;99.90;;;;;;5092456;28;20043;-76
2023/04/08 03:25:10;;;;;;;29.05;26.15;;;1.90;99.90;;;;;;5084305;28;20093;-76
2023/04/08 03:27:36;;;;;;;26.52;23.95;;;1.90;99.90;;;;;;5076234;28;20071;-76
2023/04/08 03:30:03;;;;;;;28.63;25.73;;;1.90;99.90;;;;;;5079843;28;20050;-76
2023/04/08 03:32:32;;;;;;;27.52;24.92;;;1.80;99.90;;;;;;5075141;28;20043;-76
2023/04/08 03:34:58;;;;;;;26.60;23.83;;;1.70;99.90;;;;;;5075695;28;20044;-76
2023/04/08 03:37:24;;;;;;;27.80;24.98;;;1.60;99.90;;;;;;5075626;28;20046;-76
2023/04/08 03:39:50;;;;;;;29.52;26.50;;;1.60;99.90;;;;;;5077973;28;20111;-76
2023/04/08 03:42:17;;;;;;;29.73;26.90;;;1.50;99.90;;;;;;5064740;28;20094;-76
2023/04/08 03:44:43;;;;;;;15.95;8.65;;;1.50;99.90;;;;;;5077144;28;20060;-76
2023/04/08 03:47:09;;;;;;;28.42;25.83;;;1.40;99.90;;;;;;5092672;28;20070;-76
2023/04/08 03:49:35;;;;;;;28.73;25.92;;;1.40;99.90;;;;;;5084516;28;20458;-76
2023/04/08 03:52:01;;;;;;;30.00;26.88;;;1.30;99.90;;;;;;5073869;28;20048;-76
2023/04/08 03:54:27;;;;;;;18.27;10.00;;;1.30;99.90;;;;;;5077861;28;20083;-76
2023/04/08 03:56:53;;;;;;;16.48;9.85;;;1.20;99.90;;;;;;5085708;28;20046;-76
2023/04/08 03:59:19;;;;;;;19.13;9.80;;;1.20;99.90;;;;;;5087563;28;20039;-76
2023/04/08 04:01:46;;;;;;;15.63;10.00;;;1.20;99.90;;;;;;5088758;28;20172;-76
2023/04/08 04:04:12;;;;;;;18.65;10.77;;;1.20;99.90;;;;;;5084980;28;20096;-76
2023/04/08 04:06:41;;;;;;;18.13;10.38;;;1.10;99.90;;;;;;5071352;28;20028;-76
2023/04/08 04:09:10;;;;;;;15.82;9.18;;;1.10;99.90;;;;;;5081953;28;20506;-76
2023/04/08 04:11:39;;;;;;;31.83;28.63;;;1.00;99.90;;;;;;5081715;28;20092;-76
2023/04/08 04:14:05;;;;;;;38.75;34.17;;;1.00;99.90;;;;;;5081393;28;20036;-76
2023/04/08 04:16:31;;;;;;;35.95;32.08;;;1.00;99.90;;;;;;5078463;28;20059;-76
2023/04/08 04:18:57;;;;;;;19.92;11.38;;;1.00;99.90;;;;;;5057012;28;20499;-76
2023/04/08 04:21:23;;;;;;;35.53;31.83;;;1.00;99.90;;;;;;5054483;28;20046;-76
2023/04/08 04:23:49;;;;;;;39.22;34.63;;;1.00;99.90;;;;;;5054395;28;20111;-76
2023/04/08 04:26:15;;;;;;;39.42;35.28;;;1.00;99.90;;;;;;5057508;28;20115;-76
2023/04/08 04:28:41;;;;;;;23.55;13.35;;;1.00;99.90;;;;;;5081207;28;20442;-76
2023/04/08 04:31:07;;;;;;;28.67;14.82;;;1.00;99.90;;;;;;5070979;28;20049;-77
2023/04/08 04:33:33;;;;;;;22.08;13.15;;;1.10;99.90;;;;;;5074841;28;20443;-76
2023/04/08 04:35:59;;;;;;;26.42;14.05;;;1.10;99.90;;;;;;5087974;28;20043;-76
2023/04/08 04:38:27;;;;;;;22.27;12.40;;;1.10;99.90;;;;;;5086123;28;20047;-76
2023/04/08 04:40:53;;;;;;;23.85;13.05;;;1.10;99.90;;;;;;5091325;28;20066;-77
2023/04/08 04:43:22;;;;;;;24.40;13.65;;;1.20;99.90;;;;;;5078504;28;20446;-76
2023/04/08 04:45:48;;;;;;;24.33;13.60;;;1.10;99.90;;;;;;5072886;28;20024;-76
2023/04/08 04:48:15;;;;;;;46.72;38.05;;;1.20;99.90;;;;;;5078883;28;20147;-77
2023/04/08 04:50:41;;;;;;;47.08;41.67;;;1.20;99.90;;;;;;5063606;28;20120;-76
2023/04/08 04:53:07;;;;;;;49.08;42.47;;;1.20;99.90;;;;;;5069477;28;20032;-76
2023/04/08 04:55:35;;;;;;;47.70;42.60;;;1.30;99.90;;;;;;5070487;28;20386;-77
2023/04/08 04:58:01;;;;;;;46.85;40.95;;;1.30;99.90;;;;;;5073154;28;20531;-76
2023/04/08 05:00:27;;;;;;;27.83;16.77;;;1.30;99.90;;;;;;5073282;28;20043;-76
2023/04/08 05:02:53;;;;;;;50.25;44.78;;;1.30;99.90;;;;;;5072229;28;20094;-76
2023/04/08 05:05:19;;;;;;;52.47;44.50;;;1.30;99.90;;;;;;5081767;28;20029;-76
2023/04/08 05:07:56;;;;;;;30.50;16.27;;;1.30;99.90;;;;;;5085141;28;20042;-76
2023/04/08 05:10:25;;;;;;;53.75;46.05;;;1.40;99.90;;;;;;5094096;28;20047;-76
2023/04/08 05:12:54;;;;;;;50.00;44.10;;;1.40;99.90;;;;;;5078362;28;20036;-77
2023/04/08 05:15:20;;;;;;;50.33;43.35;;;1.40;99.90;;;;;;5089746;28;20040;-76
2023/04/08 05:17:50;;;;;;;32.35;15.90;;;1.40;99.90;;;;;;5085613;28;20397;-76
2023/04/08 05:20:16;;;;;;;57.97;46.15;;;1.50;99.90;;;;;;5093526;28;20075;-77
2023/04/08 05:22:49;;;;;;;34.33;17.38;;;1.50;99.90;;;;;;5083708;28;20032;-76
2023/04/08 05:25:15;;;;;;;61.42;48.65;;;1.60;99.90;;;;;;5078278;28;20114;-76
2023/04/08 05:27:41;;;;;;;51.60;44.35;;;1.80;99.90;;;;;;5061053;28;20135;-76
2023/04/08 05:30:12;;;;;;;49.22;43.78;;;1.80;99.90;;;;;;5069507;28;20108;-76
2023/04/08 05:32:39;;;;;;;53.08;42.90;;;1.80;99.90;;;;;;5080784;28;20499;-77
2023/04/08 05:35:05;;;;;;;55.45;44.67;;;1.80;99.90;;;;;;5069427;28;20489;-76
2023/04/08 05:37:34;;;;;;;30.30;16.05;;;1.90;99.90;;;;;;5074337;28;20079;-76
2023/04/08 05:40:00;;;;;;;50.85;43.42;;;1.90;99.90;;;;;;5089517;28;20398;-76
2023/04/08 05:42:34;;;;;;;47.00;40.92;;;2.00;99.90;;;;;;5078459;28;20418;-77
2023/04/08 05:45:00;;;;;;;44.30;39.20;;;2.00;99.90;;;;;;5077819;28;20036;-76
2023/04/08 05:47:29;;;;;;;51.15;44.33;;;2.10;99.90;;;;;;5069357;28;20032;-77
2023/04/08 05:50:05;;;;;;;46.78;41.17;;;2.20;99.90;;;;;;5074777;28;20075;-76
2023/04/08 05:52:36;;;;;;;50.75;45.05;;;2.30;99.90;;;;;;5071759;28;20178;-77
2023/04/08 05:55:02;;;;;;;48.00;42.90;;;2.40;99.90;;;;;;5081959;28;20116;-76
2023/04/08 05:57:30;;;;;;;51.00;45.13;;;2.40;99.90;;;;;;5064059;28;20447;-76
2023/04/08 05:59:59;;;;;;;48.58;43.25;;;2.60;99.90;;;;;;5078152;28;20456;-76
2023/04/08 06:02:28;;;;;;;41.03;19.53;;;2.60;99.90;;;;;;5072071;28;20047;-76
2023/04/08 06:05:07;;;;;;;48.22;43.05;;;2.70;99.90;;;;;;5075971;28;20298;-76
2023/04/08 06:07:43;;;;;;;51.03;45.40;;;2.90;99.90;;;;;;5072950;28;20032;-76
2023/04/08 06:10:10;;;;;;;47.92;42.72;;;2.90;99.90;;;;;;5071270;28;20041;-76
2023/04/08 06:13:06;;;;;;;47.28;42.38;;;3.10;99.90;;;;;;5070878;28;20047;-79
2023/04/08 06:15:32;;;;;;;45.85;41.03;;;3.20;99.90;;;;;;5075653;28;20456;-77
2023/04/08 06:18:09;;;;;;;48.78;41.65;;;3.30;99.90;;;;;;5076238;28;20036;-81
2023/04/08 06:20:58;;;;;;;47.20;42.15;;;3.30;99.90;;;;;;5077217;28;20042;-81
2023/04/08 06:23:59;;;;;;;49.97;44.53;;;3.40;99.90;;;;;;5076035;28;20060;-78
2023/04/08 06:26:51;;;;;;;45.38;40.50;;;3.40;99.90;;;;;;5071333;28;20047;-80
2023/04/08 06:29:45;;;;;;;45.50;40.60;;;3.50;99.90;;;;;;5075795;28;20390;-80
2023/04/08 06:32:26;;;;;;;48.33;43.13;;;3.70;99.90;;;;;;5095422;28;20405;-79
2023/04/08 06:34:56;;;;;;;47.65;41.92;;;3.80;99.90;;;;;;5082898;28;20093;-80
2023/04/08 06:37:37;;;;;;;49.20;44.00;;;3.80;99.90;;;;;;5078657;28;20032;-80
2023/04/08 06:40:21;;;;;;;45.60;40.47;;;4.00;99.90;;;;;;5075457;28;20031;-80
2023/04/08 06:42:54;;;;;;;45.05;40.45;;;4.10;99.90;;;;;;5067658;28;20093;-79
2023/04/08 06:45:23;;;;;;;45.63;40.72;;;4.20;99.90;;;;;;5074459;28;20123;-79
2023/04/08 06:47:48;;;;;;;46.17;41.22;;;4.30;99.90;;;;;;5073358;28;20035;-80
2023/04/08 06:50:23;;;;;;;42.83;38.33;;;4.50;99.90;;;;;;5073511;28;20044;-80
2023/04/08 06:53:10;;;;;;;42.67;38.25;;;4.60;99.90;;;;;;5075651;28;20044;-80
2023/04/08 06:55:42;;;;;;;43.78;39.45;;;4.70;99.90;;;;;;5089491;28;20040;-80
2023/04/08 06:58:18;;;;;;;43.95;39.42;;;4.80;99.90;;;;;;5069601;28;20048;-80
2023/04/08 07:01:02;;;;;;;44.83;40.08;;;4.90;99.90;;;;;;5081389;28;20031;-79
2023/04/08 07:03:34;;;;;;;42.53;37.92;;;5.00;99.90;;;;;;5073798;28;20044;-80
2023/04/08 07:06:20;;;;;;;42.92;38.42;;;5.20;99.90;;;;;;5087845;28;20035;-80
2023/04/08 07:09:19;;;;;;;42.95;38.55;;;5.30;99.90;;;;;;5080937;28;20035;-80
2023/04/08 07:11:57;;;;;;;43.05;38.50;;;5.30;99.90;;;;;;5075277;28;20040;-78
2023/04/08 07:14:33;;;;;;;43.95;39.45;;;5.40;99.90;;;;;;5078427;28;20494;-79
2023/04/08 07:17:20;;;;;;;41.33;37.03;;;5.60;99.90;;;;;;5084983;28;20094;-79
2023/04/08 07:20:07;;;;;;;43.50;38.92;;;5.60;99.90;;;;;;5084008;28;20044;-79
2023/04/08 07:22:44;;;;;;;42.80;38.40;;;5.70;99.90;;;;;;5096843;28;20093;-79
2023/04/08 07:25:33;;;;;;;41.03;36.53;;;5.70;99.90;;;;;;5097034;28;20052;-79
2023/04/08 07:28:16;;;;;;;42.65;38.15;;;5.80;99.90;;;;;;5096298;28;20048;-78
2023/04/08 07:34:06;;;;;;;38.42;34.03;;;6.00;99.90;;;;;;5112587;28;20078;-79
2023/04/08 07:36:39;;;;;;;39.63;35.42;;;6.00;99.90;;;;;;5068754;28;20075;-79
2023/04/08 07:39:24;;;;;;;40.55;36.20;;;6.10;99.90;;;;;;5055313;28;20056;-79
2023/04/08 07:41:57;;;;;;;40.58;36.38;;;6.20;99.90;;;;;;5055599;28;20122;-79
2023/04/08 07:44:28;;;;;;;41.75;37.35;;;6.10;99.90;;;;;;5063590;28;20043;-79
2023/04/08 07:47:13;;;;;;;40.95;36.58;;;6.20;99.90;;;;;;5086273;28;20305;-79
2023/04/08 07:49:48;;;;;;;40.75;36.35;;;6.40;99.90;;;;;;5061494;28;20052;-79
2023/04/08 07:52:14;;;;;;;40.53;36.22;;;6.40;99.90;;;;;;5074838;28;20047;-80
2023/04/08 07:54:58;;;;;;;40.28;36.10;;;6.40;99.90;;;;;;5092348;28;20380;-79
2023/04/08 07:57:58;;;;;;;40.88;36.47;;;6.60;99.90;;;;;;5079940;28;20035;-79
2023/04/08 08:00:40;;;;;;;40.78;36.63;;;6.60;99.90;;;;;;5035953;28;20124;-80
2023/04/08 08:03:15;;;;;;;36.95;33.15;;;6.80;99.90;;;;;;5071848;28;20044;-81
2023/04/08 08:05:41;;;;;;;38.92;34.90;;;6.90;99.90;;;;;;5070804;28;20402;-78
2023/04/08 08:08:10;;;;;;;38.65;34.75;;;7.00;99.90;;;;;;5078276;28;20043;-77
2023/04/08 08:10:42;;;;;;;37.20;33.30;;;7.10;99.90;;;;;;5088167;28;20061;-79
2023/04/08 08:13:19;;;;;;;37.67;33.78;;;7.20;99.90;;;;;;5078075;28;20047;-79
2023/04/08 08:16:07;;;;;;;36.22;32.08;;;7.40;99.90;;;;;;5076855;28;20101;-79
2023/04/08 08:18:54;;;;;;;35.75;32.20;;;7.70;99.90;;;;;;5086490;28;20090;-78
2023/04/08 08:21:29;;;;;;;35.58;32.03;;;8.00;99.90;;;;;;5078806;28;20052;-80
2023/04/08 08:23:56;;;;;;;33.58;30.38;;;8.10;99.90;;;;;;5085358;28;20745;-80
2023/04/08 08:26:29;;;;;;;33.20;29.67;;;8.30;99.90;;;;;;5067804;28;20043;-79
2023/04/08 08:29:07;;;;;;;31.52;28.45;;;8.40;99.90;;;;;;5075579;28;20047;-79
2023/04/08 08:31:43;;;;;;;30.90;27.73;;;8.70;99.90;;;;;;5054143;28;20070;-79
2023/04/08 08:34:21;;;;;;;34.97;31.58;;;9.00;99.90;;;;;;5073816;28;20378;-79
2023/04/08 08:36:49;;;;;;;32.53;29.40;;;9.30;99.90;;;;;;5088545;28;20073;-79
2023/04/08 08:39:21;;;;;;;34.33;31.02;;;9.40;99.90;;;;;;5080371;28;20054;-79
2023/04/08 08:41:50;;;;;;;32.30;29.02;;;9.70;99.90;;;;;;5094041;28;20031;-79
2023/04/08 08:44:17;;;;;;;32.90;29.50;;;10.20;99.90;;;;;;5080601;28;20100;-79
2023/04/08 08:46:44;;;;;;;30.42;27.58;;;10.70;99.90;;;;;;5065903;28;20120;-78
2023/04/08 08:49:11;;;;;;;28.75;26.13;;;11.40;99.90;;;;;;5066588;28;20093;-79
2023/04/08 08:51:42;;;;;;;27.05;24.52;;;12.10;99.90;;;;;;5065832;28;20028;-77
2023/04/08 08:54:11;;;;;;;24.75;22.45;;;12.60;99.90;;;;;;5062651;28;20062;-79
2023/04/08 08:56:43;;;;;;;25.08;22.60;;;13.10;99.90;;;;;;5069590;28;20047;-80
2023/04/08 08:59:17;;;;;;;26.83;24.33;;;13.30;99.90;;;;;;5079837;28;20033;-81
2023/04/08 09:01:43;;;;;;;25.65;23.15;;;13.40;99.90;;;;;;5049802;23;21411;-74
2023/04/08 09:04:19;;;;;;;27.05;24.45;;;13.10;99.90;;;;;;5051409;28;20102;-74
2023/04/08 09:06:47;;;;;;;24.75;22.35;;;12.80;99.90;;;;;;5052482;28;20123;-74
2023/04/08 09:09:13;;;;;;;20.15;18.17;;;13.00;99.90;;;;;;5048408;28;20048;-74
2023/04/08 09:11:41;;;;;;;18.90;17.20;;;13.50;99.90;;;;;;5057713;28;20033;-74
2023/04/08 09:14:23;;;;;;;17.90;16.15;;;13.70;99.90;;;;;;5064170;28;20063;-74
2023/04/08 09:16:49;;;;;;;19.25;17.45;;;13.80;99.90;;;;;;5057402;28;20032;-74
2023/04/08 09:19:15;;;;;;;19.38;17.52;;;14.00;99.90;;;;;;5061098;28;20055;-74
2023/04/08 09:21:41;;;;;;;18.38;16.73;;;14.00;99.90;;;;;;5050580;28;20029;-74
2023/04/08 09:24:08;;;;;;;18.58;16.73;;;14.10;99.90;;;;;;5048069;28;20470;-74
2023/04/08 09:26:36;;;;;;;19.67;17.83;;;13.90;99.90;;;;;;5054593;28;20116;-74
2023/04/08 09:29:01;;;;;;;20.20;18.33;;;14.00;99.90;;;;;;5051901;28;20047;-74
2023/04/08 09:31:29;;;;;;;20.23;18.42;;;13.90;99.90;;;;;;5052126;28;20135;-74
2023/04/08 09:33:57;;;;;;;17.48;15.88;;;14.10;99.90;;;;;;5060611;28;20044;-74
2023/04/08 09:36:25;;;;;;;20.33;18.42;;;14.50;99.90;;;;;;5041120;28;20049;-74
2023/04/08 09:38:53;;;;;;;19.38;17.63;;;14.50;99.90;;;;;;5050220;28;20051;-74
2023/04/08 09:41:20;;;;;;;18.02;16.50;;;14.30;99.90;;;;;;5041493;28;20086;-74
2023/04/08 09:43:49;;;;;;;18.25;16.55;;;14.50;99.90;;;;;;5061167;28;20025;-74
2023/04/08 09:46:18;;;;;;;19.23;17.60;;;14.50;99.90;;;;;;5058599;28;20406;-74
2023/04/08 09:49:11;;;;;;;20.42;18.42;;;14.50;99.90;;;;;;5066005;28;20040;-74
2023/04/08 09:51:47;;;;;;;21.30;19.38;;;14.60;99.90;;;;;;5064955;28;20038;-74
2023/04/08 09:54:17;;;;;;;20.42;18.55;;;14.50;99.90;;;;;;5045410;28;20048;-74
2023/04/08 09:56:50;;;;;;;21.20;19.25;;;14.30;99.90;;;;;;5038813;28;20033;-74
2023/04/08 09:59:20;;;;;;;22.00;19.90;;;13.90;99.90;;;;;;5067155;28;20049;-74
2023/04/08 10:01:52;;;;;;;20.63;18.73;;;13.70;99.90;;;;;;5055968;28;20040;-74
2023/04/08 10:04:20;;;;;;;19.25;17.55;;;14.10;99.90;;;;;;5039635;28;20044;-74
2023/04/08 10:06:53;;;;;;;20.05;18.25;;;14.40;99.90;;;;;;5055027;28;20040;-74
2023/04/08 10:09:21;;;;;;;20.95;19.15;;;14.30;99.70;;;;;;5049476;28;20073;-74
2023/04/08 10:11:47;;;;;;;22.48;20.48;;;14.20;99.90;;;;;;5057345;28;20037;-74
2023/04/08 10:14:13;;;;;;;20.92;19.13;;;14.30;99.90;;;;;;5057169;28;20037;-74
2023/04/08 10:16:38;;;;;;;19.58;17.88;;;14.50;99.90;;;;;;5065853;28;20534;-74
2023/04/08 10:19:40;;;;;;;20.60;18.77;;;14.40;96.00;;;;;;5054731;28;20402;-74
2023/04/08 10:22:27;;;;;;;18.88;17.23;;;13.70;99.70;;;;;;5036698;28;20099;-74
2023/04/08 10:25:15;;;;;;;21.00;19.10;;;13.20;99.90;;;;;;5020390;28;20044;-74
2023/04/08 10:27:42;;;;;;;22.10;20.20;;;12.90;99.90;;;;;;5059730;28;20440;-74
2023/04/08 10:30:26;;;;;;;20.58;18.73;;;13.20;99.90;;;;;;5063914;28;20394;-74
2023/04/08 10:32:55;;;;;;;17.75;16.25;;;13.90;99.90;;;;;;5051504;28;20036;-74
2023/04/08 10:35:42;;;;;;;17.92;16.33;;;14.30;99.90;;;;;;5049722;28;20398;-74
2023/04/08 10:38:08;;;;;;;18.73;17.10;;;14.60;92.30;;;;;;5054433;28;20525;-74
2023/04/08 10:40:38;;;;;;;19.13;17.48;;;14.50;98.30;;;;;;5053201;28;20041;-74
2023/04/08 10:43:07;;;;;;;18.02;16.40;;;14.70;99.90;;;;;;5064257;28;20119;-74
2023/04/08 10:45:33;;;;;;;17.00;15.50;;;15.10;99.90;;;;;;5039940;28;20048;-74
2023/04/08 10:48:19;;;;;;;18.77;17.13;;;15.60;82.30;;;;;;5036226;28;20037;-74
2023/04/08 10:50:53;;;;;;;18.70;17.00;;;15.30;90.00;;;;;;5044133;28;20044;-74
2023/04/08 10:53:39;;;;;;;17.10;15.55;;;15.00;99.90;;;;;;5052133;28;20485;-74
2023/04/08 10:56:14;;;;;;;17.05;15.45;;;15.00;90.30;;;;;;5056964;28;20213;-74
2023/04/08 10:58:53;;;;;;;16.42;15.00;;;14.90;82.40;;;;;;5035954;28;20517;-74
2023/04/08 11:01:20;;;;;;;18.27;16.75;;;15.00;81.90;;;;;;5046041;28;20164;-74
2023/04/08 11:03:45;;;;;;;18.40;16.83;;;14.80;86.40;;;;;;5067732;28;20049;-74
2023/04/08 11:06:11;;;;;;;20.23;18.52;;;14.80;90.30;;;;;;5071599;28;20514;-74
2023/04/08 11:08:37;;;;;;;19.55;17.85;;;14.90;94.10;;;;;;5056670;28;20072;-74
2023/04/08 11:11:07;;;;;;;19.40;17.58;;;15.10;96.60;;;;;;5056115;28;20570;-74
2023/04/08 11:13:35;;;;;;;19.50;17.80;;;15.40;98.20;;;;;;5056341;28;20498;-74
2023/04/08 11:16:03;;;;;;;18.70;17.00;;;15.80;90.40;;;;;;5055338;28;20109;-74
2023/04/08 11:18:30;;;;;;;18.67;17.08;;;15.70;87.60;;;;;;5052512;28;20041;-74
2023/04/08 11:20:57;;;;;;;19.38;17.67;;;15.60;88.20;;;;;;5035547;28;20041;-74
2023/04/08 11:23:24;;;;;;;19.67;17.77;;;15.50;96.50;;;;;;5036350;28;20406;-74
2023/04/08 11:25:51;;;;;;;19.27;17.58;;;16.00;93.40;;;;;;5039395;28;20515;-73
2023/04/08 11:28:17;;;;;;;20.48;18.70;;;16.30;84.30;;;;;;5057952;28;20380;-76
2023/04/08 11:30:43;;;;;;;19.33;17.63;;;16.30;90.00;;;;;;5067084;28;20040;-75
2023/04/08 11:33:09;;;;;;;17.92;16.38;;;16.40;87.30;;;;;;5072084;28;20046;-75
2023/04/08 11:35:40;;;;;;;17.27;15.68;;;16.50;87.10;;;;;;5053737;28;20037;-74
2023/04/08 11:38:06;;;;;;;17.08;15.43;;;16.60;80.60;;;;;;5060599;28;20044;-74
2023/04/08 11:40:32;;;;;;;17.73;16.13;;;16.60;82.60;;;;;;5075568;28;20128;-75
2023/04/08 11:42:57;;;;;;;18.90;17.20;;;16.60;82.90;;;;;;5075461;28;20119;-74
2023/04/08 11:45:23;;;;;;;18.42;16.83;;;16.80;82.30;;;;;;5075648;28;20089;-74
2023/04/08 11:47:49;;;;;;;16.73;15.23;;;16.80;82.80;;;;;;5055285;28;20554;-75
2023/04/08 11:50:25;;;;;;;17.08;15.48;;;17.00;82.50;;;;;;5069552;28;20131;-75
2023/04/08 11:52:52;;;;;;;16.50;14.90;;;17.20;81.30;;;;;;5035029;28;20041;-75
2023/04/08 11:55:26;;;;;;;16.83;15.38;;;17.40;81.20;;;;;;5043441;28;20040;-75
2023/04/08 11:57:53;;;;;;;16.70;15.20;;;17.50;75.30;;;;;;5061709;28;20509;-75
2023/04/08 12:00:20;;;;;;;17.27;15.70;;;17.40;81.60;;;;;;5062058;28;20075;-75
2023/04/08 12:02:46;;;;;;;16.15;14.75;;;17.60;85.50;;;;;;5053563;28;20051;-75
2023/04/08 12:05:13;;;;;;;16.15;14.75;;;17.40;81.90;;;;;;5037008;28;20482;-76
2023/04/08 12:07:38;;;;;;;17.25;15.80;;;17.00;84.50;;;;;;5039248;28;20037;-75
2023/04/08 12:10:05;;;;;;;18.20;16.70;;;16.70;83.50;;;;;;5064180;28;20094;-75
2023/04/08 12:12:30;;;;;;;16.83;15.40;;;16.30;87.20;;;;;;5063721;28;20059;-75
2023/04/08 12:14:56;;;;;;;17.33;15.82;;;16.20;83.80;;;;;;5054877;28;20111;-75
2023/04/08 12:17:22;;;;;;;17.63;16.08;;;15.80;87.30;;;;;;5055053;28;20040;-75
2023/04/08 12:19:47;;;;;;;19.95;18.15;;;15.50;90.80;;;;;;5054691;28;20041;-75
2023/04/08 12:22:13;;;;;;;20.40;18.60;;;15.30;91.30;;;;;;5054840;28;20383;-75
2023/04/08 12:24:38;;;;;;;18.25;16.75;;;14.90;99.10;;;;;;5049404;28;20036;-75
2023/04/08 12:27:04;;;;;;;19.42;17.88;;;14.60;99.90;;;;;;5054861;28;20089;-75
2023/04/08 12:29:30;;;;;;;17.15;15.65;;;14.50;99.90;;;;;;5054561;28;20032;-75
2023/04/08 12:31:56;;;;;;;18.05;16.55;;;14.50;99.90;;;;;;5054226;28;20483;-75
2023/04/08 12:34:21;;;;;;;18.05;16.55;;;14.50;99.90;;;;;;5054848;28;20101;-75
2023/04/08 12:36:48;;;;;;;18.33;16.63;;;14.50;99.90;;;;;;5054710;28;20036;-75
2023/04/08 12:39:13;;;;;;;16.80;15.23;;;14.40;99.90;;;;;;5054445;28;20125;-75
2023/04/08 12:41:39;;;;;;;16.83;15.32;;;14.30;99.90;;;;;;5053030;28;20509;-75
2023/04/08 12:44:04;;;;;;;16.55;15.05;;;14.20;99.90;;;;;;5054610;28;20036;-75
2023/04/08 12:46:30;;;;;;;15.55;14.15;;;14.10;99.90;;;;;;5054599;28;20036;-75
2023/04/08 12:48:55;;;;;;;16.70;15.23;;;14.00;99.90;;;;;;5054555;28;20090;-75
2023/04/08 12:51:21;;;;;;;16.45;14.85;;;14.20;99.90;;;;;;5053920;28;20047;-75
2023/04/08 12:53:47;;;;;;;15.40;13.93;;;14.30;99.90;;;;;;5037490;28;20127;-75